createdAt,value
2023-05-13T00:01:49.275Z,14.70
2023-05-13T00:04:18.531Z,16.33
2023-05-13T00:06:46.709Z,20.42
2023-05-13T00:09:15.229Z,24.05
2023-05-13T00:11:43.579Z,15.50
2023-05-13T00:14:11.920Z,17.52
2023-05-13T00:16:40.091Z,18.83
2023-05-13T00:22:41.499Z,19.77
2023-05-13T00:25:10.145Z,20.63
2023-05-13T00:27:39.409Z,20.27
2023-05-13T00:30:08.451Z,21.77
2023-05-13T00:32:36.716Z,16.67
2023-05-13T00:35:05.025Z,21.02
2023-05-13T00:37:33.382Z,15.35
2023-05-13T00:40:02.159Z,24.70
2023-05-13T00:42:30.465Z,17.77
2023-05-13T00:44:58.683Z,19.25
2023-05-13T00:47:27.056Z,14.75
2023-05-13T00:49:55.426Z,12.40
2023-05-13T00:52:23.787Z,14.75
2023-05-13T00:54:52.023Z,15.15
2023-05-13T00:57:20.297Z,11.95
2023-05-13T00:59:48.686Z,13.10
2023-05-13T01:02:22.864Z,19.98
2023-05-13T01:05:39.398Z,14.15
2023-05-13T01:08:32.972Z,18.60
2023-05-13T01:11:27.502Z,13.35
2023-05-13T01:14:12.841Z,14.43
2023-05-13T01:16:49.387Z,9.65
2023-05-13T01:19:42.350Z,9.32
2023-05-13T01:22:10.815Z,11.82
2023-05-13T01:24:39.295Z,11.85
2023-05-13T01:27:08.554Z,9.80
2023-05-13T01:29:37.451Z,17.63
2023-05-13T01:32:08.402Z,11.00
2023-05-13T01:34:38.347Z,11.23
2023-05-13T01:37:07.193Z,11.40
2023-05-13T01:39:38.947Z,8.93
2023-05-13T01:42:12.031Z,9.45
2023-05-13T01:44:41.465Z,17.02
2023-05-13T01:47:09.596Z,7.50
2023-05-13T01:49:37.864Z,8.82
2023-05-13T01:52:08.009Z,8.38
2023-05-13T01:54:36.329Z,8.55
2023-05-13T01:57:09.261Z,10.93
2023-05-13T01:59:37.654Z,10.68
2023-05-13T02:02:05.981Z,15.30
2023-05-13T02:04:34.680Z,9.55
2023-05-13T02:07:03.104Z,16.92
2023-05-13T02:09:33.259Z,11.85
2023-05-13T02:12:01.801Z,18.33
2023-05-13T02:14:30.456Z,14.55
2023-05-13T02:16:59.094Z,16.42
2023-05-13T02:19:28.191Z,9.77
2023-05-13T02:21:56.667Z,16.13
2023-05-13T02:24:24.990Z,14.52
2023-05-13T02:26:53.200Z,30.20
2023-05-13T02:29:21.636Z,14.57
2023-05-13T02:31:49.887Z,11.95
2023-05-13T02:34:18.582Z,17.70
2023-05-13T02:36:46.948Z,12.80
2023-05-13T02:39:15.502Z,16.75
2023-05-13T02:41:43.969Z,14.85
2023-05-13T02:44:12.396Z,20.60
2023-05-13T02:46:40.720Z,20.83
2023-05-13T02:49:08.919Z,15.20
2023-05-13T02:51:37.197Z,20.02
2023-05-13T02:54:07.119Z,19.52
2023-05-13T02:56:35.457Z,20.65
2023-05-13T02:59:03.643Z,22.98
2023-05-13T03:01:31.994Z,25.08
2023-05-13T03:04:00.195Z,18.73
2023-05-13T03:06:28.602Z,23.67
2023-05-13T03:08:56.851Z,11.90
2023-05-13T03:11:24.993Z,16.77
2023-05-13T03:13:53.346Z,14.55
2023-05-13T03:16:22.740Z,13.73
2023-05-13T03:18:51.257Z,15.20
2023-05-13T03:21:20.078Z,17.35
2023-05-13T03:23:48.534Z,13.98
2023-05-13T03:26:17.977Z,16.70
2023-05-13T03:28:46.164Z,12.13
2023-05-13T03:31:15.061Z,15.82
2023-05-13T03:33:43.284Z,15.35
2023-05-13T03:36:13.725Z,14.45
2023-05-13T03:38:41.929Z,14.80
2023-05-13T03:41:10.565Z,12.27
2023-05-13T03:43:38.680Z,9.27
2023-05-13T03:46:11.703Z,23.15
2023-05-13T03:48:42.464Z,11.50
2023-05-13T03:51:10.780Z,11.05
2023-05-13T03:53:40.233Z,15.55
2023-05-13T03:56:09.254Z,11.52
2023-05-13T03:58:37.499Z,13.15
2023-05-13T04:01:05.890Z,11.32
2023-05-13T04:03:34.743Z,8.27
2023-05-13T04:06:03.604Z,8.82
2023-05-13T04:08:31.864Z,12.35
2023-05-13T04:11:00.087Z,11.55
2023-05-13T04:13:28.389Z,16.45
2023-05-13T04:15:56.469Z,12.43
2023-05-13T04:18:24.719Z,16.58
2023-05-13T04:20:53.103Z,15.02
2023-05-13T04:23:22.382Z,17.98
2023-05-13T04:25:53.645Z,15.90
2023-05-13T04:28:22.055Z,12.80
2023-05-13T04:30:51.492Z,19.35
2023-05-13T04:33:19.681Z,8.60
2023-05-13T04:35:49.896Z,20.17
2023-05-13T04:38:18.833Z,14.00
2023-05-13T04:40:47.472Z,16.52
2023-05-13T04:43:20.037Z,34.40
2023-05-13T04:45:52.807Z,88.68
2023-05-13T04:48:21.176Z,128.13
2023-05-13T04:50:49.476Z,48.97
2023-05-13T04:53:18.479Z,37.88
2023-05-13T04:55:50.864Z,17.95
2023-05-13T04:58:19.303Z,12.73
2023-05-13T05:00:47.434Z,13.80
2023-05-13T05:03:16.014Z,11.73
2023-05-13T05:05:44.495Z,10.07
2023-05-13T05:08:14.622Z,14.00
2023-05-13T05:10:43.508Z,19.05
2023-05-13T05:13:12.735Z,12.65
2023-05-13T05:15:41.713Z,13.93
2023-05-13T05:18:10.654Z,13.65
2023-05-13T05:20:40.681Z,13.88
2023-05-13T05:23:15.321Z,13.27
2023-05-13T05:25:44.084Z,14.60
2023-05-13T05:28:12.165Z,12.70
2023-05-13T05:30:43.258Z,12.55
2023-05-13T05:33:18.468Z,14.02
2023-05-13T05:35:47.314Z,12.60
2023-05-13T05:38:18.011Z,12.20
2023-05-13T05:40:47.952Z,9.75
2023-05-13T05:43:16.291Z,13.50
2023-05-13T05:48:34.617Z,15.73
2023-05-13T05:51:04.725Z,12.60
2023-05-13T05:53:36.785Z,14.95
2023-05-13T05:56:05.487Z,14.15
2023-05-13T05:58:33.679Z,12.65
2023-05-13T06:01:02.450Z,16.88
2023-05-13T06:03:30.901Z,16.13
2023-05-13T06:06:00.184Z,10.07
2023-05-13T06:08:28.657Z,12.27
2023-05-13T06:10:58.381Z,28.40
2023-05-13T06:13:27.147Z,12.88
2023-05-13T06:15:56.429Z,13.73
2023-05-13T06:18:24.780Z,14.68
2023-05-13T06:20:52.965Z,14.60
2023-05-13T06:23:21.318Z,16.15
2023-05-13T06:25:49.510Z,18.10
2023-05-13T06:28:17.796Z,17.42
2023-05-13T06:30:46.333Z,16.63
2023-05-13T06:33:14.513Z,16.80
2023-05-13T06:35:42.971Z,16.58
2023-05-13T06:38:13.664Z,18.38
2023-05-13T06:40:42.053Z,17.02
2023-05-13T06:43:10.859Z,14.68
2023-05-13T06:45:39.755Z,19.67
2023-05-13T06:48:08.057Z,20.77
2023-05-13T06:50:38.189Z,19.05
2023-05-13T06:53:06.716Z,18.65
2023-05-13T06:55:34.887Z,19.50
2023-05-13T06:58:03.036Z,14.77
2023-05-13T07:00:31.179Z,22.85
2023-05-13T07:02:59.480Z,32.28
2023-05-13T07:05:27.643Z,27.50
2023-05-13T07:07:55.862Z,32.92
2023-05-13T07:10:24.366Z,14.48
2023-05-13T07:12:52.738Z,20.45
2023-05-13T07:15:21.252Z,24.00
2023-05-13T07:17:49.657Z,20.73
2023-05-13T07:20:18.045Z,21.38
2023-05-13T07:22:46.299Z,16.23
2023-05-13T07:25:14.643Z,14.55
2023-05-13T07:27:42.859Z,27.13
2023-05-13T07:30:12.360Z,26.83
2023-05-13T07:32:41.365Z,24.58
2023-05-13T07:35:10.041Z,26.98
2023-05-13T07:37:38.391Z,27.42
2023-05-13T07:40:07.930Z,25.83
2023-05-13T07:42:36.812Z,24.65
2023-05-13T07:45:05.807Z,25.58
2023-05-13T07:47:34.744Z,26.23
2023-05-13T07:50:03.071Z,37.92
2023-05-13T07:52:32.408Z,37.13
2023-05-13T07:55:00.798Z,32.22
2023-05-13T07:57:29.147Z,31.55
2023-05-13T07:59:57.443Z,23.23
2023-05-13T08:02:25.846Z,30.50
2023-05-13T08:04:54.349Z,28.92
2023-05-13T08:07:22.561Z,22.63
2023-05-13T08:09:51.172Z,25.67
2023-05-13T08:12:19.318Z,26.70
2023-05-13T08:14:48.955Z,26.65
2023-05-13T08:17:17.546Z,17.85
2023-05-13T08:19:45.769Z,20.83
2023-05-13T08:22:14.007Z,22.45
2023-05-13T08:24:42.229Z,19.40
2023-05-13T08:27:10.432Z,19.60
2023-05-13T08:29:38.593Z,28.35
2023-05-13T08:32:06.939Z,25.95
2023-05-13T08:34:35.298Z,20.80
2023-05-13T08:37:03.417Z,25.35
2023-05-13T08:39:31.578Z,21.50
2023-05-13T08:42:00.044Z,20.25
2023-05-13T08:44:29.688Z,19.48
2023-05-13T08:47:11.988Z,15.32
2023-05-13T08:49:40.728Z,20.58
2023-05-13T08:52:09.725Z,21.80
2023-05-13T08:54:39.415Z,14.43
2023-05-13T08:57:07.786Z,12.27
2023-05-13T08:59:35.935Z,10.35
2023-05-13T09:02:05.895Z,11.45
2023-05-13T09:04:35.669Z,8.38
2023-05-13T09:07:07.627Z,9.05
2023-05-13T09:09:36.618Z,7.57
2023-05-13T09:12:05.144Z,10.75
2023-05-13T09:14:33.826Z,10.75
2023-05-13T09:17:05.596Z,11.57
2023-05-13T09:19:34.033Z,7.95
2023-05-13T09:22:02.243Z,19.05
2023-05-13T09:24:30.696Z,8.18
2023-05-13T09:27:00.330Z,10.32
2023-05-13T09:29:29.000Z,7.80
2023-05-13T09:32:00.746Z,9.98
2023-05-13T09:34:33.998Z,10.55
2023-05-13T10:02:37.232Z,10.30
2023-05-13T15:41:19.957Z,12.25
2023-05-13T15:43:48.798Z,22.00
2023-05-13T15:46:17.319Z,11.77
2023-05-13T15:48:45.788Z,9.70
2023-05-13T15:51:14.263Z,19.45
2023-05-13T15:53:42.352Z,11.98
2023-05-13T15:56:10.767Z,18.05
2023-05-13T15:58:39.048Z,14.73
2023-05-13T16:01:07.302Z,19.95
2023-05-13T16:03:37.146Z,8.95
2023-05-13T16:06:06.728Z,15.75
2023-05-13T16:08:35.373Z,13.20
2023-05-13T16:11:03.463Z,17.95
2023-05-13T16:13:31.793Z,20.38
2023-05-13T16:16:00.048Z,17.02
2023-05-13T16:28:44.947Z,11.25
2023-05-13T16:31:13.668Z,12.93
2023-05-13T16:33:43.228Z,24.15
2023-05-13T16:36:11.709Z,23.48
2023-05-13T16:38:40.871Z,15.18
2023-05-13T16:41:09.396Z,19.00
2023-05-13T16:43:37.641Z,16.70
2023-05-13T16:46:06.760Z,9.63
2023-05-13T16:48:36.194Z,29.15
2023-05-13T16:51:06.577Z,20.48
2023-05-13T16:53:35.059Z,29.80
2023-05-13T16:56:03.456Z,17.45
2023-05-13T16:58:31.614Z,20.25
2023-05-13T17:01:00.048Z,34.70
2023-05-13T17:03:28.517Z,18.13
2023-05-13T17:05:56.776Z,16.48
2023-05-13T17:08:24.951Z,20.92
2023-05-13T17:10:53.279Z,18.00
2023-05-13T17:13:21.491Z,23.27
2023-05-13T17:15:49.878Z,32.20
2023-05-13T17:18:18.101Z,25.85
2023-05-13T17:20:46.605Z,24.85
2023-05-13T17:23:14.699Z,24.73
2023-05-13T17:25:43.079Z,20.38
2023-05-13T17:28:11.291Z,23.48
2023-05-13T17:30:39.619Z,29.73
2023-05-13T17:33:07.976Z,26.15
2023-05-13T17:35:36.468Z,23.10
2023-05-13T17:38:04.534Z,16.50
2023-05-13T17:40:32.806Z,35.50
2023-05-13T17:43:02.076Z,59.58
2023-05-13T17:45:30.746Z,56.60
2023-05-13T17:47:59.484Z,94.57
2023-05-13T17:50:28.139Z,130.10
2023-05-13T17:52:57.078Z,61.20
2023-05-13T17:55:26.634Z,66.45
2023-05-13T17:57:55.087Z,79.28
2023-05-13T18:00:25.469Z,42.95
2023-05-13T18:02:54.358Z,60.33
2023-05-13T18:05:23.797Z,61.47
2023-05-13T18:07:52.141Z,90.22
2023-05-13T18:10:20.432Z,63.83
2023-05-13T18:12:48.887Z,52.17
2023-05-13T18:15:17.201Z,55.80
2023-05-13T18:17:45.534Z,66.93
2023-05-13T18:20:14.102Z,75.20
2023-05-13T18:22:42.481Z,88.70
2023-05-13T18:25:10.974Z,40.95
2023-05-13T18:27:39.426Z,34.63
2023-05-13T18:30:08.499Z,32.92
2023-05-13T18:32:37.028Z,46.67
2023-05-13T18:35:05.493Z,95.97
2023-05-13T18:37:33.866Z,121.28
2023-05-13T18:40:02.100Z,118.28
2023-05-13T18:42:30.565Z,71.32
2023-05-13T18:44:58.805Z,86.53
2023-05-13T18:47:27.280Z,110.38
2023-05-13T18:49:55.383Z,116.13
2023-05-13T18:52:23.775Z,89.68
2023-05-13T18:54:52.221Z,36.50
2023-05-13T18:57:20.788Z,56.45
2023-05-13T18:59:49.155Z,53.67
2023-05-13T19:02:17.709Z,70.20
2023-05-13T19:04:46.198Z,50.33
2023-05-13T19:07:14.646Z,54.60
2023-05-13T19:09:42.946Z,71.20
2023-05-13T19:12:11.309Z,85.10
2023-05-13T19:14:39.606Z,67.13
2023-05-13T19:17:07.954Z,76.82
2023-05-13T19:19:36.282Z,73.45
2023-05-13T19:22:04.930Z,87.20
2023-05-13T19:24:33.183Z,95.50
2023-05-13T19:27:01.842Z,102.75
2023-05-13T19:29:30.208Z,89.68
2023-05-13T19:31:58.488Z,95.55
2023-05-13T19:34:26.701Z,76.90
2023-05-13T19:36:56.265Z,100.32
2023-05-13T19:39:25.390Z,56.13
2023-05-13T19:41:53.782Z,34.08
2023-05-13T19:44:21.912Z,26.40
2023-05-13T19:46:50.197Z,17.92
2023-05-13T19:49:18.633Z,28.15
2023-05-13T19:51:47.492Z,17.63
2023-05-13T19:54:15.772Z,29.40
2023-05-13T19:56:43.976Z,24.67
2023-05-13T19:59:12.432Z,23.90
2023-05-13T20:01:40.776Z,40.72
2023-05-13T20:04:09.896Z,28.08
2023-05-13T20:06:38.231Z,15.68
2023-05-13T20:09:06.765Z,14.82
2023-05-13T20:11:37.743Z,18.27
2023-05-13T20:14:06.121Z,40.40
2023-05-13T20:16:34.412Z,47.60
2023-05-13T20:19:05.928Z,41.08
2023-05-13T20:21:34.315Z,51.80
2023-05-13T20:24:02.406Z,34.53
2023-05-13T20:26:30.826Z,55.33
2023-05-13T20:31:44.827Z,44.40
2023-05-13T20:34:13.062Z,78.13
2023-05-13T20:36:42.219Z,55.10
2023-05-13T20:39:10.364Z,115.47
2023-05-13T20:41:38.759Z,95.28
2023-05-13T20:44:07.062Z,71.70
2023-05-13T20:46:35.409Z,76.75
2023-05-13T20:49:04.004Z,90.63
2023-05-13T20:51:32.347Z,101.70
2023-05-13T20:54:02.106Z,85.60
2023-05-13T20:56:30.391Z,83.90
2023-05-13T20:58:58.758Z,83.05
2023-05-13T21:01:27.059Z,72.80
2023-05-13T21:03:55.447Z,68.38
2023-05-13T21:06:24.318Z,72.00
2023-05-13T21:08:52.520Z,65.80
2023-05-13T21:11:21.041Z,84.05
2023-05-13T21:13:49.489Z,66.43
2023-05-13T21:16:17.779Z,63.47
2023-05-13T21:18:46.075Z,66.10
2023-05-13T21:21:14.427Z,64.78
2023-05-13T21:23:43.494Z,54.03
2023-05-13T21:26:12.040Z,79.78
2023-05-13T21:28:40.992Z,89.82
2023-05-13T21:31:09.048Z,85.43
2023-05-13T21:33:37.363Z,66.95
2023-05-13T21:36:05.900Z,53.50
2023-05-13T21:38:34.263Z,61.35
2023-05-13T21:41:02.620Z,48.22
2023-05-13T21:43:30.991Z,39.67
2023-05-13T21:45:59.280Z,42.20
2023-05-13T21:48:27.496Z,49.70
2023-05-13T21:50:55.814Z,52.10
2023-05-13T21:53:24.414Z,46.17
2023-05-13T21:55:53.152Z,51.53
2023-05-13T21:58:23.247Z,53.70
2023-05-13T22:00:52.533Z,50.88
2023-05-13T22:03:22.556Z,64.05
2023-05-13T22:05:50.943Z,60.67
2023-05-13T22:08:19.121Z,60.83
2023-05-13T22:10:47.539Z,63.05
2023-05-13T22:13:15.923Z,54.55
2023-05-13T22:15:44.356Z,68.63
2023-05-13T22:18:15.607Z,66.68
2023-05-13T22:20:44.096Z,70.57
2023-05-13T22:23:12.182Z,81.35
2023-05-13T22:25:40.530Z,75.25
2023-05-13T22:28:09.457Z,63.45
2023-05-13T22:30:38.622Z,58.97
2023-05-13T22:35:37.887Z,55.35
2023-05-13T22:38:06.154Z,51.33
2023-05-13T22:40:34.653Z,61.28
2023-05-13T22:43:03.177Z,45.53
2023-05-13T22:45:31.943Z,44.25
2023-05-13T22:48:00.322Z,56.35
2023-05-13T22:50:28.654Z,63.03
2023-05-13T22:52:57.246Z,71.15
2023-05-13T22:55:25.595Z,75.55
2023-05-13T22:58:01.392Z,80.20
2023-05-13T23:00:29.696Z,67.78
2023-05-13T23:02:57.917Z,68.65
2023-05-13T23:05:26.206Z,80.10
2023-05-13T23:07:54.397Z,71.10
2023-05-13T23:10:23.045Z,78.10
2023-05-13T23:12:51.402Z,82.20
2023-05-13T23:15:19.812Z,85.57
2023-05-13T23:17:48.021Z,92.63
2023-05-13T23:20:17.241Z,105.90
2023-05-13T23:22:45.472Z,88.03
2023-05-13T23:25:16.498Z,116.13
2023-05-13T23:27:44.985Z,100.32
2023-05-13T23:30:13.679Z,87.72
2023-05-13T23:32:41.954Z,100.35
2023-05-13T23:35:10.483Z,79.38
2023-05-13T23:37:38.674Z,78.82
2023-05-13T23:40:07.818Z,63.05
2023-05-13T23:42:36.071Z,69.22
2023-05-13T23:45:04.488Z,61.20
2023-05-13T23:47:32.719Z,62.17
2023-05-13T23:50:01.058Z,55.80
2023-05-13T23:52:29.232Z,50.25
2023-05-13T23:54:57.408Z,37.33
2023-05-13T23:57:27.422Z,47.80
2023-05-13T23:59:55.699Z,42.05
